sensor_id;sensor_type;location;lat;lon;timestamp;pressure;altitude;pressure_sealevel;temperature;humidity
11347;BME280;5728;42.722;23.258;2023-05-24T00:00:26;94577.88;;;13.26;88.75
11347;BME280;5728;42.722;23.258;2023-05-24T00:02:53;94577.97;;;13.23;88.99
11347;BME280;5728;42.722;23.258;2023-05-24T00:05:22;94576.09;;;13.28;88.71
11347;BME280;5728;42.722;23.258;2023-05-24T00:07:48;94580.44;;;12.65;90.54
11347;BME280;5728;42.722;23.258;2023-05-24T00:10:17;94579.97;;;12.49;91.70
11347;BME280;5728;42.722;23.258;2023-05-24T00:12:43;94577.41;;;12.80;90.86
11347;BME280;5728;42.722;23.258;2023-05-24T00:15:10;94576.94;;;12.97;90.03
11347;BME280;5728;42.722;23.258;2023-05-24T00:17:37;94576.00;;;13.31;88.89
11347;BME280;5728;42.722;23.258;2023-05-24T00:20:07;94572.06;;;13.17;89.35
11347;BME280;5728;42.722;23.258;2023-05-24T00:22:35;94576.00;;;13.31;88.26
11347;BME280;5728;42.722;23.258;2023-05-24T00:25:03;94565.91;;;13.21;88.89
11347;BME280;5728;42.722;23.258;2023-05-24T00:27:31;94564.16;;;13.21;89.15
11347;BME280;5728;42.722;23.258;2023-05-24T00:29:58;94559.59;;;13.28;89.39
11347;BME280;5728;42.722;23.258;2023-05-24T00:32:25;94563.94;;;13.27;89.12
11347;BME280;5728;42.722;23.258;2023-05-24T00:34:51;94560.50;;;13.27;89.08
11347;BME280;5728;42.722;23.258;2023-05-24T00:37:18;94573.03;;;13.43;88.29
11347;BME280;5728;42.722;23.258;2023-05-24T00:39:45;94554.66;;;13.48;87.82
11347;BME280;5728;42.722;23.258;2023-05-24T00:42:12;94555.97;;;13.33;87.74
11347;BME280;5728;42.722;23.258;2023-05-24T00:44:40;94553.47;;;13.30;88.49
11347;BME280;5728;42.722;23.258;2023-05-24T00:47:07;94554.81;;;12.82;89.63
11347;BME280;5728;42.722;23.258;2023-05-24T00:49:34;94560.72;;;12.89;90.53
11347;BME280;5728;42.722;23.258;2023-05-24T00:52:01;94557.78;;;12.99;90.33
11347;BME280;5728;42.722;23.258;2023-05-24T00:54:28;94553.53;;;12.97;88.55
11347;BME280;5728;42.722;23.258;2023-05-24T00:56:56;94560.63;;;12.27;91.88
11347;BME280;5728;42.722;23.258;2023-05-24T00:59:23;94554.56;;;12.27;93.08
11347;BME280;5728;42.722;23.258;2023-05-24T01:01:51;94559.38;;;12.42;92.63
11347;BME280;5728;42.722;23.258;2023-05-24T01:04:19;94561.81;;;12.48;92.26
11347;BME280;5728;42.722;23.258;2023-05-24T01:06:55;94559.66;;;12.63;91.00
11347;BME280;5728;42.722;23.258;2023-05-24T01:09:31;94573.34;;;12.70;91.00
11347;BME280;5728;42.722;23.258;2023-05-24T01:12:07;94566.44;;;12.69;90.71
11347;BME280;5728;42.722;23.258;2023-05-24T01:14:43;94567.41;;;12.65;90.28
11347;BME280;5728;42.722;23.258;2023-05-24T01:17:20;94577.34;;;12.83;88.80
11347;BME280;5728;42.722;23.258;2023-05-24T01:19:56;94569.47;;;12.86;88.83
11347;BME280;5728;42.722;23.258;2023-05-24T01:22:51;94563.53;;;12.81;89.25
11347;BME280;5728;42.722;23.258;2023-05-24T01:25:34;94568.03;;;12.74;89.79
11347;BME280;5728;42.722;23.258;2023-05-24T01:28:08;94570.25;;;12.88;89.09
11347;BME280;5728;42.722;23.258;2023-05-24T01:30:37;94570.94;;;12.95;88.40
11347;BME280;5728;42.722;23.258;2023-05-24T01:33:05;94575.63;;;12.82;88.79
11347;BME280;5728;42.722;23.258;2023-05-24T01:35:32;94587.41;;;12.95;87.78
11347;BME280;5728;42.722;23.258;2023-05-24T01:38:04;94580.66;;;12.88;88.22
11347;BME280;5728;42.722;23.258;2023-05-24T01:40:31;94576.41;;;12.86;88.03
11347;BME280;5728;42.722;23.258;2023-05-24T01:43:02;94569.97;;;12.99;87.58
11347;BME280;5728;42.722;23.258;2023-05-24T01:45:34;94566.34;;;12.72;88.42
11347;BME280;5728;42.722;23.258;2023-05-24T01:48:10;94568.97;;;12.72;89.13
11347;BME280;5728;42.722;23.258;2023-05-24T01:50:47;94567.75;;;12.19;91.09
11347;BME280;5728;42.722;23.258;2023-05-24T01:53:17;94566.53;;;11.60;94.25
11347;BME280;5728;42.722;23.258;2023-05-24T01:55:47;94562.84;;;11.30;97.06
11347;BME280;5728;42.722;23.258;2023-05-24T01:58:15;94567.66;;;11.50;97.82
11347;BME280;5728;42.722;23.258;2023-05-24T02:00:44;94557.59;;;11.33;97.84
11347;BME280;5728;42.722;23.258;2023-05-24T02:03:13;94566.25;;;11.34;98.37
11347;BME280;5728;42.722;23.258;2023-05-24T02:05:40;94565.28;;;11.38;98.54
11347;BME280;5728;42.722;23.258;2023-05-24T02:08:08;94563.97;;;11.19;99.66
11347;BME280;5728;42.722;23.258;2023-05-24T02:10:35;94556.09;;;11.25;99.23
11347;BME280;5728;42.722;23.258;2023-05-24T02:13:03;94565.03;;;11.10;100.00
11347;BME280;5728;42.722;23.258;2023-05-24T02:15:30;94571.81;;;11.17;100.00
11347;BME280;5728;42.722;23.258;2023-05-24T02:17:58;94561.56;;;11.11;99.97
11347;BME280;5728;42.722;23.258;2023-05-24T02:20:26;94559.81;;;11.10;100.00
11347;BME280;5728;42.722;23.258;2023-05-24T02:22:55;94556.63;;;10.98;100.00
11347;BME280;5728;42.722;23.258;2023-05-24T02:25:22;94553.31;;;10.91;100.00
11347;BME280;5728;42.722;23.258;2023-05-24T02:27:48;94550.63;;;10.96;100.00
11347;BME280;5728;42.722;23.258;2023-05-24T02:30:16;94553.97;;;11.40;99.61
11347;BME280;5728;42.722;23.258;2023-05-24T02:32:43;94550.88;;;11.63;98.45
11347;BME280;5728;42.722;23.258;2023-05-24T02:35:12;94563.09;;;11.58;97.18
11347;BME280;5728;42.722;23.258;2023-05-24T02:37:39;94552.94;;;11.49;98.26
11347;BME280;5728;42.722;23.258;2023-05-24T02:40:06;94565.63;;;11.63;97.48
11347;BME280;5728;42.722;23.258;2023-05-24T02:42:34;94548.91;;;11.74;97.48
11347;BME280;5728;42.722;23.258;2023-05-24T02:45:01;94563.53;;;11.80;96.78
11347;BME280;5728;42.722;23.258;2023-05-24T02:47:27;94556.22;;;11.95;95.83
11347;BME280;5728;42.722;23.258;2023-05-24T02:49:54;94562.97;;;12.02;95.25
11347;BME280;5728;42.722;23.258;2023-05-24T02:52:23;94567.25;;;12.03;94.10
11347;BME280;5728;42.722;23.258;2023-05-24T02:54:49;94564.66;;;12.03;94.41
11347;BME280;5728;42.722;23.258;2023-05-24T02:57:16;94568.91;;;12.07;94.70
11347;BME280;5728;42.722;23.258;2023-05-24T02:59:43;94567.34;;;12.34;93.67
11347;BME280;5728;42.722;23.258;2023-05-24T03:02:10;94578.13;;;12.21;94.03
11347;BME280;5728;42.722;23.258;2023-05-24T03:04:39;94587.59;;;12.22;94.02
11347;BME280;5728;42.722;23.258;2023-05-24T03:07:06;94619.78;;;12.18;93.45
11347;BME280;5728;42.722;23.258;2023-05-24T03:09:34;94582.84;;;12.03;93.71
11347;BME280;5728;42.722;23.258;2023-05-24T03:12:00;94579.94;;;12.17;94.26
11347;BME280;5728;42.722;23.258;2023-05-24T03:14:27;94576.25;;;12.26;93.82
11347;BME280;5728;42.722;23.258;2023-05-24T03:16:54;94583.03;;;12.31;93.67
11347;BME280;5728;42.722;23.258;2023-05-24T03:19:21;94602.53;;;11.77;94.91
11347;BME280;5728;42.722;23.258;2023-05-24T03:21:48;94583.78;;;11.23;99.27
11347;BME280;5728;42.722;23.258;2023-05-24T03:24:14;94599.94;;;11.37;100.00
11347;BME280;5728;42.722;23.258;2023-05-24T03:26:42;94591.19;;;11.81;98.53
11347;BME280;5728;42.722;23.258;2023-05-24T03:29:09;94591.28;;;11.78;98.00
11347;BME280;5728;42.722;23.258;2023-05-24T03:31:36;94595.63;;;11.77;98.27
11347;BME280;5728;42.722;23.258;2023-05-24T03:34:03;94588.16;;;12.00;97.70
11347;BME280;5728;42.722;23.258;2023-05-24T03:36:29;94610.44;;;12.10;97.25
11347;BME280;5728;42.722;23.258;2023-05-24T03:38:57;94595.72;;;12.09;96.56
11347;BME280;5728;42.722;23.258;2023-05-24T03:41:23;94601.41;;;11.88;96.12
11347;BME280;5728;42.722;23.258;2023-05-24T03:43:52;94600.09;;;12.07;96.25
11347;BME280;5728;42.722;23.258;2023-05-24T03:46:18;94599.72;;;12.23;95.70
11347;BME280;5728;42.722;23.258;2023-05-24T03:48:45;94608.44;;;12.54;94.20
11347;BME280;5728;42.722;23.258;2023-05-24T03:51:12;94603.44;;;12.80;93.14
11347;BME280;5728;42.722;23.258;2023-05-24T03:53:38;94599.69;;;12.90;92.65
11347;BME280;5728;42.722;23.258;2023-05-24T03:56:05;94599.22;;;13.08;91.79
11347;BME280;5728;42.722;23.258;2023-05-24T03:58:32;94596.94;;;13.27;91.27
11347;BME280;5728;42.722;23.258;2023-05-24T04:01:00;94596.41;;;13.47;90.32
11347;BME280;5728;42.722;23.258;2023-05-24T04:03:28;94604.09;;;13.50;90.10
11347;BME280;5728;42.722;23.258;2023-05-24T04:05:54;94590.81;;;13.59;89.59
11347;BME280;5728;42.722;23.258;2023-05-24T04:08:21;94602.28;;;13.81;88.28
11347;BME280;5728;42.722;23.258;2023-05-24T04:10:48;94596.47;;;13.73;86.42
11347;BME280;5728;42.722;23.258;2023-05-24T04:13:14;94597.38;;;13.99;86.60
11347;BME280;5728;42.722;23.258;2023-05-24T04:15:41;94602.38;;;14.33;85.68
11347;BME280;5728;42.722;23.258;2023-05-24T04:18:09;94598.44;;;14.20;83.46
11347;BME280;5728;42.722;23.258;2023-05-24T04:20:37;94605.13;;;14.01;84.46
11347;BME280;5728;42.722;23.258;2023-05-24T04:23:03;94604.25;;;14.28;84.52
11347;BME280;5728;42.722;23.258;2023-05-24T04:25:30;94605.41;;;14.47;83.79
11347;BME280;5728;42.722;23.258;2023-05-24T04:28:01;94601.59;;;14.57;83.13
11347;BME280;5728;42.722;23.258;2023-05-24T04:30:28;94605.88;;;14.85;82.68
11347;BME280;5728;42.722;23.258;2023-05-24T04:32:55;94603.44;;;15.05;80.68
11347;BME280;5728;42.722;23.258;2023-05-24T04:35:23;94611.94;;;15.34;79.63
11347;BME280;5728;42.722;23.258;2023-05-24T04:37:51;94611.72;;;15.41;79.01
11347;BME280;5728;42.722;23.258;2023-05-24T04:40:18;94609.75;;;15.70;78.41
11347;BME280;5728;42.722;23.258;2023-05-24T04:42:47;94615.97;;;15.89;76.51
11347;BME280;5728;42.722;23.258;2023-05-24T04:45:14;94618.47;;;15.92;76.47
11347;BME280;5728;42.722;23.258;2023-05-24T04:47:41;94618.19;;;16.00;75.34
11347;BME280;5728;42.722;23.258;2023-05-24T04:50:08;94627.44;;;16.09;75.26
11347;BME280;5728;42.722;23.258;2023-05-24T04:52:36;94627.44;;;16.09;75.25
11347;BME280;5728;42.722;23.258;2023-05-24T04:55:04;94621.47;;;16.05;75.37
11347;BME280;5728;42.722;23.258;2023-05-24T04:57:30;94630.91;;;16.09;74.58
11347;BME280;5728;42.722;23.258;2023-05-24T04:59:57;94641.06;;;16.17;74.87
11347;BME280;5728;42.722;23.258;2023-05-24T05:02:24;94619.78;;;16.26;74.57
11347;BME280;5728;42.722;23.258;2023-05-24T05:04:51;94630.41;;;16.66;74.16
11347;BME280;5728;42.722;23.258;2023-05-24T05:07:18;94641.69;;;16.88;73.44
11347;BME280;5728;42.722;23.258;2023-05-24T05:09:47;94640.81;;;16.88;73.38
11347;BME280;5728;42.722;23.258;2023-05-24T05:12:14;94642.72;;;17.04;72.38
11347;BME280;5728;42.722;23.258;2023-05-24T05:14:41;94644.19;;;17.11;72.18
11347;BME280;5728;42.722;23.258;2023-05-24T05:17:08;94635.66;;;17.47;71.97
11347;BME280;5728;42.722;23.258;2023-05-24T05:19:35;94632.44;;;17.60;70.83
11347;BME280;5728;42.722;23.258;2023-05-24T05:22:01;94631.25;;;17.47;70.21
11347;BME280;5728;42.722;23.258;2023-05-24T05:24:28;94640.00;;;17.87;69.48
11347;BME280;5728;42.722;23.258;2023-05-24T05:26:57;94640.56;;;17.93;68.72
11347;BME280;5728;42.722;23.258;2023-05-24T05:29:24;94642.13;;;17.97;67.84
11347;BME280;5728;42.722;23.258;2023-05-24T05:31:50;94642.13;;;17.97;67.94
11347;BME280;5728;42.722;23.258;2023-05-24T05:34:17;94645.28;;;17.85;67.84
11347;BME280;5728;42.722;23.258;2023-05-24T05:36:45;94640.28;;;17.99;68.47
11347;BME280;5728;42.722;23.258;2023-05-24T05:39:12;94639.72;;;18.30;67.79
11347;BME280;5728;42.722;23.258;2023-05-24T05:41:39;94653.19;;;18.22;67.09
11347;BME280;5728;42.722;23.258;2023-05-24T05:44:10;94633.47;;;18.51;66.30
11347;BME280;5728;42.722;23.258;2023-05-24T05:46:37;94646.03;;;18.80;65.97
11347;BME280;5728;42.722;23.258;2023-05-24T05:49:04;94646.19;;;18.77;64.97
11347;BME280;5728;42.722;23.258;2023-05-24T05:51:31;94648.31;;;19.22;64.00
11347;BME280;5728;42.722;23.258;2023-05-24T05:53:58;94655.16;;;19.43;62.32
11347;BME280;5728;42.722;23.258;2023-05-24T05:56:25;94632.53;;;19.39;62.26
11347;BME280;5728;42.722;23.258;2023-05-24T05:58:53;94648.78;;;19.47;61.94
11347;BME280;5728;42.722;23.258;2023-05-24T06:01:21;94650.91;;;19.73;61.62
11347;BME280;5728;42.722;23.258;2023-05-24T06:03:48;94654.16;;;19.79;61.19
11347;BME280;5728;42.722;23.258;2023-05-24T06:06:16;94648.25;;;19.91;60.63
11347;BME280;5728;42.722;23.258;2023-05-24T06:08:43;94667.97;;;19.49;61.70
11347;BME280;5728;42.722;23.258;2023-05-24T06:11:09;94670.03;;;19.60;61.74
11347;BME280;5728;42.722;23.258;2023-05-24T06:13:36;94660.84;;;20.17;60.39
11347;BME280;5728;42.722;23.258;2023-05-24T06:16:03;94661.84;;;20.31;59.36
11347;BME280;5728;42.722;23.258;2023-05-24T06:18:34;94666.75;;;20.53;60.08
11347;BME280;5728;42.722;23.258;2023-05-24T06:21:01;94652.88;;;20.18;58.64
11347;BME280;5728;42.722;23.258;2023-05-24T06:23:28;94647.25;;;20.09;60.54
11347;BME280;5728;42.722;23.258;2023-05-24T06:25:55;94658.63;;;20.09;60.62
11347;BME280;5728;42.722;23.258;2023-05-24T06:28:21;94659.56;;;19.76;61.34
11347;BME280;5728;42.722;23.258;2023-05-24T06:30:48;94650.66;;;19.45;62.59
11347;BME280;5728;42.722;23.258;2023-05-24T06:33:16;94660.84;;;20.17;62.74
11347;BME280;5728;42.722;23.258;2023-05-24T06:35:44;94662.44;;;20.37;59.76
11347;BME280;5728;42.722;23.258;2023-05-24T06:38:11;94656.78;;;20.89;59.34
11347;BME280;5728;42.722;23.258;2023-05-24T06:40:38;94645.44;;;21.19;58.58
11347;BME280;5728;42.722;23.258;2023-05-24T06:43:05;94652.94;;;21.11;57.27
11347;BME280;5728;42.722;23.258;2023-05-24T06:45:32;94649.84;;;21.48;56.79
11347;BME280;5728;42.722;23.258;2023-05-24T06:47:59;94650.22;;;21.42;55.22
11347;BME280;5728;42.722;23.258;2023-05-24T06:50:26;94646.09;;;22.10;55.16
11347;BME280;5728;42.722;23.258;2023-05-24T06:52:54;94658.84;;;22.72;53.98
11347;BME280;5728;42.722;23.258;2023-05-24T06:55:21;94640.34;;;22.72;53.23
11347;BME280;5728;42.722;23.258;2023-05-24T06:57:47;94651.34;;;22.93;52.30
11347;BME280;5728;42.722;23.258;2023-05-24T07:00:15;94653.97;;;22.38;54.44
11347;BME280;5728;42.722;23.258;2023-05-24T07:02:43;94649.63;;;22.65;52.61
11347;BME280;5728;42.722;23.258;2023-05-24T07:05:09;94655.16;;;22.61;53.86
11347;BME280;5728;42.722;23.258;2023-05-24T07:07:38;94646.69;;;22.97;53.19
11347;BME280;5728;42.722;23.258;2023-05-24T07:10:08;94648.50;;;23.35;51.01
11347;BME280;5728;42.722;23.258;2023-05-24T07:12:36;94646.44;;;23.53;50.49
11347;BME280;5728;42.722;23.258;2023-05-24T07:15:04;94644.75;;;23.65;50.54
11347;BME280;5728;42.722;23.258;2023-05-24T07:17:33;94645.09;;;23.73;50.91
11347;BME280;5728;42.722;23.258;2023-05-24T07:20:00;94622.13;;;23.34;50.48
11347;BME280;5728;42.722;23.258;2023-05-24T07:22:30;94647.06;;;23.57;51.38
11347;BME280;5728;42.722;23.258;2023-05-24T07:24:57;94645.22;;;23.96;49.36
11347;BME280;5728;42.722;23.258;2023-05-24T07:27:25;94643.31;;;24.11;47.49
11347;BME280;5728;42.722;23.258;2023-05-24T07:29:53;94649.69;;;22.78;49.83
11347;BME280;5728;42.722;23.258;2023-05-24T07:32:20;94656.41;;;22.55;52.47
11347;BME280;5728;42.722;23.258;2023-05-24T07:34:47;94648.09;;;22.75;52.34
11347;BME280;5728;42.722;23.258;2023-05-24T07:37:15;94646.47;;;23.00;51.34
11347;BME280;5728;42.722;23.258;2023-05-24T07:39:42;94652.59;;;23.54;51.53
11347;BME280;5728;42.722;23.258;2023-05-24T07:42:09;94649.66;;;23.71;50.70
11347;BME280;5728;42.722;23.258;2023-05-24T07:44:37;94652.00;;;24.13;51.71
11347;BME280;5728;42.722;23.258;2023-05-24T07:47:04;94657.16;;;24.40;50.70
11347;BME280;5728;42.722;23.258;2023-05-24T07:49:31;94645.22;;;24.34;49.50
11347;BME280;5728;42.722;23.258;2023-05-24T07:51:58;94648.63;;;24.60;49.27
11347;BME280;5728;42.722;23.258;2023-05-24T07:54:25;94651.91;;;25.12;48.70
11347;BME280;5728;42.722;23.258;2023-05-24T07:56:51;94649.56;;;24.71;48.91
11347;BME280;5728;42.722;23.258;2023-05-24T07:59:18;94644.38;;;25.06;47.79
11347;BME280;5728;42.722;23.258;2023-05-24T08:01:47;94642.34;;;25.68;45.46
11347;BME280;5728;42.722;23.258;2023-05-24T08:04:14;94643.19;;;25.69;45.40
11347;BME280;5728;42.722;23.258;2023-05-24T08:06:41;94640.31;;;25.83;43.71
11347;BME280;5728;42.722;23.258;2023-05-24T08:09:08;94637.25;;;26.00;44.52
11347;BME280;5728;42.722;23.258;2023-05-24T08:11:35;94661.94;;;26.46;40.80
11347;BME280;5728;42.722;23.258;2023-05-24T08:14:01;94645.84;;;26.81;41.52
11347;BME280;5728;42.722;23.258;2023-05-24T08:16:28;94635.81;;;26.85;40.19
11347;BME280;5728;42.722;23.258;2023-05-24T08:18:57;94634.25;;;26.93;41.01
11347;BME280;5728;42.722;23.258;2023-05-24T08:21:24;94638.97;;;26.45;39.03
11347;BME280;5728;42.722;23.258;2023-05-24T08:23:52;94628.81;;;26.39;39.64
11347;BME280;5728;42.722;23.258;2023-05-24T08:26:20;94660.13;;;26.25;40.04
11347;BME280;5728;42.722;23.258;2023-05-24T08:28:46;94648.41;;;26.60;39.11
11347;BME280;5728;42.722;23.258;2023-05-24T08:31:13;94634.41;;;27.12;40.38
11347;BME280;5728;42.722;23.258;2023-05-24T08:33:40;94618.66;;;26.55;37.45
11347;BME280;5728;42.722;23.258;2023-05-24T08:36:09;94637.41;;;26.32;39.60
11347;BME280;5728;42.722;23.258;2023-05-24T08:38:36;94643.81;;;26.29;38.71
11347;BME280;5728;42.722;23.258;2023-05-24T08:41:04;94630.72;;;26.82;39.35
11347;BME280;5728;42.722;23.258;2023-05-24T08:43:32;94630.81;;;26.91;33.93
11347;BME280;5728;42.722;23.258;2023-05-24T08:46:01;94629.09;;;27.12;33.92
11347;BME280;5728;42.722;23.258;2023-05-24T08:48:29;94625.88;;;27.30;31.67
11347;BME280;5728;42.722;23.258;2023-05-24T08:50:57;94632.34;;;27.59;31.44
11347;BME280;5728;42.722;23.258;2023-05-24T08:53:25;94635.19;;;27.46;31.11
11347;BME280;5728;42.722;23.258;2023-05-24T08:55:53;94639.66;;;27.35;32.89
11347;BME280;5728;42.722;23.258;2023-05-24T08:58:20;94625.63;;;27.64;32.64
11347;BME280;5728;42.722;23.258;2023-05-24T09:00:47;94627.22;;;28.08;32.76
11347;BME280;5728;42.722;23.258;2023-05-24T09:03:15;94633.22;;;27.90;31.97
11347;BME280;5728;42.722;23.258;2023-05-24T09:05:43;94625.84;;;28.44;33.17
11347;BME280;5728;42.722;23.258;2023-05-24T09:08:10;94628.38;;;28.15;30.54
11347;BME280;5728;42.722;23.258;2023-05-24T09:10:39;94612.38;;;28.45;31.94
11347;BME280;5728;42.722;23.258;2023-05-24T09:13:06;94629.25;;;28.56;34.03
11347;BME280;5728;42.722;23.258;2023-05-24T09:15:33;94624.66;;;27.86;31.99
11347;BME280;5728;42.722;23.258;2023-05-24T09:18:00;94617.50;;;28.07;32.03
11347;BME280;5728;42.722;23.258;2023-05-24T09:20:29;94625.25;;;28.10;34.91
11347;BME280;5728;42.722;23.258;2023-05-24T09:22:56;94619.38;;;27.22;31.71
11347;BME280;5728;42.722;23.258;2023-05-24T09:25:26;94618.78;;;26.65;32.61
11347;BME280;5728;42.722;23.258;2023-05-24T09:27:55;94616.69;;;27.34;34.77
11347;BME280;5728;42.722;23.258;2023-05-24T09:30:22;94636.88;;;27.68;32.12
11347;BME280;5728;42.722;23.258;2023-05-24T09:32:56;94616.72;;;27.54;32.11
11347;BME280;5728;42.722;23.258;2023-05-24T09:35:24;94616.94;;;27.83;32.98
11347;BME280;5728;42.722;23.258;2023-05-24T09:37:53;94616.31;;;28.00;31.06
11347;BME280;5728;42.722;23.258;2023-05-24T09:40:22;94613.75;;;27.89;31.40
11347;BME280;5728;42.722;23.258;2023-05-24T09:43:03;94602.38;;;27.46;32.71
11347;BME280;5728;42.722;23.258;2023-05-24T09:45:31;94603.31;;;27.45;30.68
11347;BME280;5728;42.722;23.258;2023-05-24T09:47:58;94632.34;;;27.59;31.61
11347;BME280;5728;42.722;23.258;2023-05-24T09:50:25;94610.41;;;27.55;32.04
11347;BME280;5728;42.722;23.258;2023-05-24T09:52:53;94633.31;;;27.99;30.64
11347;BME280;5728;42.722;23.258;2023-05-24T09:55:21;94610.91;;;28.02;30.56
11347;BME280;5728;42.722;23.258;2023-05-24T09:57:50;94606.53;;;28.21;31.36
11347;BME280;5728;42.722;23.258;2023-05-24T10:00:22;94608.47;;;28.50;29.38
11347;BME280;5728;42.722;23.258;2023-05-24T10:02:59;94603.81;;;28.12;29.41
11347;BME280;5728;42.722;23.258;2023-05-24T10:05:26;94604.91;;;27.89;29.88
11347;BME280;5728;42.722;23.258;2023-05-24T10:07:54;94605.72;;;28.61;28.57
11347;BME280;5728;42.722;23.258;2023-05-24T10:10:22;94606.31;;;28.64;28.48
11347;BME280;5728;42.722;23.258;2023-05-24T10:12:49;94594.88;;;29.12;28.39
11347;BME280;5728;42.722;23.258;2023-05-24T10:15:17;94600.22;;;29.12;29.18
11347;BME280;5728;42.722;23.258;2023-05-24T10:17:45;94589.16;;;29.54;27.88
11347;BME280;5728;42.722;23.258;2023-05-24T10:20:12;94607.41;;;29.68;26.58
11347;BME280;5728;42.722;23.258;2023-05-24T10:22:42;94589.97;;;30.03;26.11
11347;BME280;5728;42.722;23.258;2023-05-24T10:25:14;94590.53;;;29.97;27.38
11347;BME280;5728;42.722;23.258;2023-05-24T10:27:43;94570.81;;;30.44;27.16
11347;BME280;5728;42.722;23.258;2023-05-24T10:30:15;94585.72;;;30.83;27.09
11347;BME280;5728;42.722;23.258;2023-05-24T10:32:49;94585.56;;;31.30;26.15
11347;BME280;5728;42.722;23.258;2023-05-24T10:35:17;94583.47;;;30.52;26.69
11347;BME280;5728;42.722;23.258;2023-05-24T10:37:45;94598.59;;;30.70;26.02
11347;BME280;5728;42.722;23.258;2023-05-24T10:40:17;94576.50;;;30.41;25.68
11347;BME280;5728;42.722;23.258;2023-05-24T10:42:44;94571.16;;;30.41;25.87
11347;BME280;5728;42.722;23.258;2023-05-24T10:45:31;94571.88;;;30.61;25.51
11347;BME280;5728;42.722;23.258;2023-05-24T10:48:34;94567.47;;;31.32;28.06
11347;BME280;5728;42.722;23.258;2023-05-24T10:51:32;94566.25;;;29.42;28.03
11347;BME280;5728;42.722;23.258;2023-05-24T10:54:11;94569.91;;;29.22;27.68
11347;BME280;5728;42.722;23.258;2023-05-24T10:56:42;94559.13;;;28.74;27.62
11347;BME280;5728;42.722;23.258;2023-05-24T10:59:21;94551.75;;;29.26;27.88
11347;BME280;5728;42.722;23.258;2023-05-24T11:01:54;94553.09;;;30.43;27.04
11347;BME280;5728;42.722;23.258;2023-05-24T11:04:23;94549.56;;;31.32;25.56
11347;BME280;5728;42.722;23.258;2023-05-24T11:06:54;94554.66;;;31.53;25.13
11347;BME280;5728;42.722;23.258;2023-05-24T11:09:23;94538.34;;;31.11;25.80
11347;BME280;5728;42.722;23.258;2023-05-24T11:11:54;94557.41;;;31.26;25.34
11347;BME280;5728;42.722;23.258;2023-05-24T11:14:23;94550.97;;;31.72;25.63
11347;BME280;5728;42.722;23.258;2023-05-24T11:16:51;94546.91;;;31.50;25.02
11347;BME280;5728;42.722;23.258;2023-05-24T11:19:19;94574.56;;;31.68;26.23
11347;BME280;5728;42.722;23.258;2023-05-24T11:21:49;94555.28;;;31.90;24.73
11347;BME280;5728;42.722;23.258;2023-05-24T11:24:19;94541.63;;;31.58;24.57
11347;BME280;5728;42.722;23.258;2023-05-24T11:26:46;94544.81;;;31.79;25.59
11347;BME280;5728;42.722;23.258;2023-05-24T11:29:13;94543.00;;;31.62;25.08
11347;BME280;5728;42.722;23.258;2023-05-24T11:31:49;94539.47;;;31.79;24.77
11347;BME280;5728;42.722;23.258;2023-05-24T11:34:17;94545.13;;;31.76;24.90
11347;BME280;5728;42.722;23.258;2023-05-24T11:36:44;94534.84;;;32.15;24.33
11347;BME280;5728;42.722;23.258;2023-05-24T11:39:14;94543.66;;;32.33;23.56
11347;BME280;5728;42.722;23.258;2023-05-24T11:41:42;94557.72;;;32.53;24.11
11347;BME280;5728;42.722;23.258;2023-05-24T11:44:11;94534.47;;;32.10;25.18
11347;BME280;5728;42.722;23.258;2023-05-24T11:46:38;94532.47;;;32.46;24.20
11347;BME280;5728;42.722;23.258;2023-05-24T11:49:06;94536.09;;;32.54;25.74
11347;BME280;5728;42.722;23.258;2023-05-24T11:51:33;94528.75;;;32.05;23.74
11347;BME280;5728;42.722;23.258;2023-05-24T11:54:01;94518.84;;;32.05;23.75
11347;BME280;5728;42.722;23.258;2023-05-24T11:56:30;94522.88;;;32.35;24.43
11347;BME280;5728;42.722;23.258;2023-05-24T11:59:10;94514.63;;;31.16;25.33
11347;BME280;5728;42.722;23.258;2023-05-24T12:01:39;94515.66;;;31.59;25.94
11347;BME280;5728;42.722;23.258;2023-05-24T12:04:06;94512.56;;;32.14;25.84
11347;BME280;5728;42.722;23.258;2023-05-24T12:06:35;94524.13;;;32.49;25.17
11347;BME280;5728;42.722;23.258;2023-05-24T12:09:02;94537.53;;;32.49;24.90
11347;BME280;5728;42.722;23.258;2023-05-24T12:11:38;94509.25;;;32.54;24.22
11347;BME280;5728;42.722;23.258;2023-05-24T12:14:06;94518.50;;;32.34;24.75
11347;BME280;5728;42.722;23.258;2023-05-24T12:16:37;94513.53;;;32.89;24.81
11347;BME280;5728;42.722;23.258;2023-05-24T12:19:04;94514.56;;;32.96;24.44
11347;BME280;5728;42.722;23.258;2023-05-24T12:21:31;94500.09;;;32.39;23.72
11347;BME280;5728;42.722;23.258;2023-05-24T12:24:09;94503.31;;;32.51;24.26
11347;BME280;5728;42.722;23.258;2023-05-24T12:26:39;94512.81;;;31.60;24.83
11347;BME280;5728;42.722;23.258;2023-05-24T12:29:06;94507.19;;;31.45;25.53
11347;BME280;5728;42.722;23.258;2023-05-24T12:31:34;94490.38;;;30.73;26.39
11347;BME280;5728;42.722;23.258;2023-05-24T12:34:01;94495.94;;;30.79;25.57
11347;BME280;5728;42.722;23.258;2023-05-24T12:36:30;94485.63;;;30.94;25.51
11347;BME280;5728;42.722;23.258;2023-05-24T12:38:56;94485.13;;;31.77;25.00
11347;BME280;5728;42.722;23.258;2023-05-24T12:41:24;94495.56;;;32.48;24.60
11347;BME280;5728;42.722;23.258;2023-05-24T12:43:53;94475.34;;;33.35;23.78
11347;BME280;5728;42.722;23.258;2023-05-24T12:46:21;94486.94;;;33.28;24.65
11347;BME280;5728;42.722;23.258;2023-05-24T12:48:48;94484.25;;;33.28;23.33
11347;BME280;5728;42.722;23.258;2023-05-24T12:51:14;94474.00;;;33.64;23.53
11347;BME280;5728;42.722;23.258;2023-05-24T12:53:41;94473.97;;;33.07;24.14
11347;BME280;5728;42.722;23.258;2023-05-24T12:56:08;94468.59;;;33.23;24.08
11347;BME280;5728;42.722;23.258;2023-05-24T12:58:35;94474.63;;;33.90;22.90
11347;BME280;5728;42.722;23.258;2023-05-24T13:01:03;94473.75;;;32.85;23.35
11347;BME280;5728;42.722;23.258;2023-05-24T13:03:31;94463.38;;;30.39;27.03
11347;BME280;5728;42.722;23.258;2023-05-24T13:05:57;94458.47;;;32.01;26.09